Time;durP1;ratioP1;P1;durP2;ratioP2;P2;SDS_P1;SDS_P2;PMS_P1;PMS_P2;Temp;Humidity;BMP_temperature;BMP_pressure;BME280_temperature;BME280_humidity;BME280_pressure;Samples;Min_cycle;Max_cycle;Signal;HPM_P1;HPM_P2
2021/08/17 00:01:34;;;;;;;6.18;2.20;;;;;;;14.84;75.32;101646.75;5058574;28;20043;-84
2021/08/17 00:04:01;;;;;;;10.82;2.63;;;;;;;14.89;75.33;101643.72;5067086;28;20044;-84
2021/08/17 00:06:28;;;;;;;8.95;2.28;;;;;;;14.88;75.38;101634.53;5075341;28;20119;-84
2021/08/17 00:08:55;;;;;;;8.70;1.90;;;;;;;14.83;75.66;101636.75;5061101;28;20131;-85
2021/08/17 00:11:21;;;;;;;6.80;2.28;;;;;;;14.82;75.49;101633.19;5075064;28;20041;-84
2021/08/17 00:13:48;;;;;;;4.80;2.08;;;;;;;14.78;75.52;101637.00;5057208;28;20489;-84
2021/08/17 00:16:15;;;;;;;10.27;2.03;;;;;;;14.81;75.53;101630.72;5074341;28;20465;-84
2021/08/17 00:18:43;;;;;;;9.73;2.63;;;;;;;14.76;75.43;101651.31;5051263;28;20096;-84
2021/08/17 00:21:12;;;;;;;8.68;2.33;;;;;;;14.74;75.69;101645.28;5067711;28;20116;-85
2021/08/17 00:23:38;;;;;;;10.95;2.30;;;;;;;14.71;75.65;101643.19;5074491;28;20032;-84
2021/08/17 00:26:05;;;;;;;9.40;3.20;;;;;;;14.75;75.58;101651.63;5074297;28;20052;-83
2021/08/17 00:28:32;;;;;;;12.10;2.63;;;;;;;14.78;75.45;101646.19;5074932;28;20032;-84
2021/08/17 00:30:59;;;;;;;7.40;2.60;;;;;;;14.72;75.71;101650.38;5071587;28;20048;-84
2021/08/17 00:33:26;;;;;;;5.90;1.77;;;;;;;14.73;75.72;101649.22;5057963;28;20036;-84
2021/08/17 00:35:54;;;;;;;6.40;2.00;;;;;;;14.74;75.69;101647.25;5057028;28;20063;-85
2021/08/17 00:38:21;;;;;;;7.82;2.20;;;;;;;14.75;75.66;101649.66;5073985;28;20033;-84
2021/08/17 00:40:48;;;;;;;6.60;1.95;;;;;;;14.76;75.37;101645.72;5074018;28;20051;-84
2021/08/17 00:43:14;;;;;;;6.22;1.77;;;;;;;14.76;75.49;101654.09;5065840;28;20047;-84
2021/08/17 00:45:41;;;;;;;6.85;2.17;;;;;;;14.79;75.48;101645.03;5074107;28;20509;-83
2021/08/17 00:48:08;;;;;;;13.60;2.25;;;;;;;14.81;75.43;101651.06;5061831;28;20399;-84
2021/08/17 00:50:35;;;;;;;6.60;1.95;;;;;;;14.78;75.23;101648.97;5056318;28;20063;-84
2021/08/17 00:53:03;;;;;;;11.05;2.40;;;;;;;14.79;75.26;101649.78;5066123;28;20045;-83
2021/08/17 00:55:31;;;;;;;11.43;1.98;;;;;;;14.79;75.37;101647.81;5067595;28;20070;-84
2021/08/17 00:57:58;;;;;;;5.80;2.55;;;;;;;14.82;75.26;101647.13;5073414;28;20040;-83
2021/08/17 01:00:26;;;;;;;16.20;3.55;;;;;;;14.80;75.48;101643.06;5073942;28;20037;-83
2021/08/17 01:02:53;;;;;;;7.53;2.35;;;;;;;14.73;75.41;101643.63;5073125;28;20037;-83
2021/08/17 01:05:27;;;;;;;9.15;2.53;;;;;;;14.70;75.72;101635.97;5065658;28;20127;-83
2021/08/17 01:07:55;;;;;;;11.25;2.08;;;;;;;14.69;75.75;101637.16;5073840;28;20507;-83
2021/08/17 01:10:21;;;;;;;11.45;2.80;;;;;;;14.72;75.89;101630.84;5058538;28;20395;-83
2021/08/17 01:12:48;;;;;;;7.00;2.03;;;;;;;14.72;75.57;101636.44;5077560;28;20063;-84
2021/08/17 01:15:15;;;;;;;8.43;2.33;;;;;;;14.62;75.83;101629.38;5049647;28;20136;-83
2021/08/17 01:17:43;;;;;;;5.55;2.08;;;;;;;14.60;75.85;101634.50;5064957;28;20063;-84
2021/08/17 01:20:19;;;;;;;7.55;1.85;;;;;;;14.54;75.94;101624.75;5035305;28;20500;-84
2021/08/17 01:22:48;;;;;;;8.93;1.98;;;;;;;14.61;75.61;101613.81;5047455;28;20124;-84
2021/08/17 01:25:15;;;;;;;10.85;2.90;;;;;;;14.64;75.51;101606.72;5073091;28;20051;-83
2021/08/17 01:27:44;;;;;;;5.82;1.92;;;;;;;14.63;75.57;101600.34;5073793;28;20128;-84
2021/08/17 01:30:13;;;;;;;7.97;1.90;;;;;;;14.64;75.55;101601.13;5070220;28;20062;-83
2021/08/17 01:32:44;;;;;;;9.68;3.55;;;;;;;14.58;75.73;101605.34;5085358;28;20040;-83
2021/08/17 01:35:11;;;;;;;6.30;2.40;;;;;;;14.59;75.51;101606.94;5075301;28;20120;-83
2021/08/17 01:37:38;;;;;;;5.93;2.08;;;;;;;14.57;75.66;101600.94;5056880;28;20477;-84
2021/08/17 01:40:07;;;;;;;8.68;1.92;;;;;;;14.52;75.81;101607.56;5043633;28;20040;-84
2021/08/17 01:42:35;;;;;;;6.45;1.77;;;;;;;14.51;75.80;101607.91;5074820;28;20132;-85
2021/08/17 01:45:03;;;;;;;7.22;1.80;;;;;;;14.50;75.58;101601.53;5089921;28;20483;-83
2021/08/17 01:47:30;;;;;;;6.05;1.65;;;;;;;14.48;75.69;101598.25;5083788;28;20068;-84
2021/08/17 01:50:01;;;;;;;5.68;1.75;;;;;;;14.51;75.52;101605.94;5069661;28;20045;-83
2021/08/17 01:52:29;;;;;;;8.63;2.00;;;;;;;14.52;75.32;101609.53;5075307;28;20831;-84
2021/08/17 01:54:56;;;;;;;7.70;1.40;;;;;;;14.47;75.47;101601.41;5039582;28;20831;-84
2021/08/17 01:57:23;;;;;;;6.93;1.73;;;;;;;14.50;75.26;101597.94;5062638;28;20068;-83
2021/08/17 01:59:52;;;;;;;7.28;2.10;;;;;;;14.48;75.50;101591.91;5072269;28;20119;-84
2021/08/17 02:02:19;;;;;;;3.25;1.63;;;;;;;14.48;75.29;101591.91;5067234;28;20043;-83
2021/08/17 02:04:46;;;;;;;4.60;1.40;;;;;;;14.45;75.28;101592.59;5070855;28;20132;-84
2021/08/17 02:07:13;;;;;;;6.97;1.50;;;;;;;14.37;75.46;101585.19;5073508;28;20051;-83
2021/08/17 02:09:40;;;;;;;7.18;1.60;;;;;;;14.38;75.21;101586.78;5073074;28;20119;-83
2021/08/17 02:12:07;;;;;;;5.70;1.50;;;;;;;14.41;75.20;101591.66;5055454;28;20548;-84
2021/08/17 02:14:34;;;;;;;8.20;1.65;;;;;;;14.40;75.08;101584.50;5071226;28;20227;-84
2021/08/17 02:17:00;;;;;;;6.43;1.55;;;;;;;14.45;74.88;101603.75;5058845;28;20044;-83
2021/08/17 02:19:27;;;;;;;5.68;1.80;;;;;;;14.39;74.83;101588.44;5070991;28;20488;-84
2021/08/17 02:21:54;;;;;;;7.20;1.25;;;;;;;14.35;74.88;101590.31;5072034;28;20094;-83
2021/08/17 02:24:21;;;;;;;10.55;2.22;;;;;;;14.35;74.71;101593.88;5071625;28;20055;-84
2021/08/17 02:26:47;;;;;;;8.60;1.48;;;;;;;14.38;74.65;101595.97;5054632;28;20048;-84
2021/08/17 02:29:14;;;;;;;3.95;1.17;;;;;;;14.35;74.67;101596.66;5056523;28;20067;-85
2021/08/17 02:31:41;;;;;;;5.50;1.40;;;;;;;14.34;74.41;101597.03;5071960;28;20044;-83
2021/08/17 02:34:07;;;;;;;5.60;1.10;;;;;;;14.28;74.21;101595.59;5071513;28;20083;-84
2021/08/17 02:36:34;;;;;;;6.20;1.33;;;;;;;14.29;74.28;101595.25;5060584;28;20048;-84
2021/08/17 02:39:01;;;;;;;3.47;1.20;;;;;;;14.27;74.17;101594.00;5072160;28;20037;-84
2021/08/17 02:41:28;;;;;;;8.05;1.38;;;;;;;14.26;74.37;101578.44;5042321;28;20138;-83
2021/08/17 02:43:54;;;;;;;4.00;1.60;;;;;;;14.24;74.29;101577.97;5072336;28;20052;-84
2021/08/17 02:46:21;;;;;;;4.47;1.35;;;;;;;14.22;74.54;101583.06;5064732;28;20167;-83
2021/08/17 02:48:48;;;;;;;7.60;1.30;;;;;;;14.23;74.26;101584.69;5072831;28;20115;-83
2021/08/17 02:51:16;;;;;;;9.10;2.63;;;;;;;14.22;74.33;101583.06;5038445;28;20055;-83
2021/08/17 02:53:43;;;;;;;4.00;1.17;;;;;;;14.16;74.40;101579.72;5074728;28;20043;-83
2021/08/17 02:56:10;;;;;;;5.72;1.60;;;;;;;14.17;74.29;101566.59;5076316;28;20036;-83
2021/08/17 02:58:36;;;;;;;5.35;1.10;;;;;;;14.21;74.19;101568.34;5076037;28;20438;-83
2021/08/17 03:01:03;;;;;;;3.72;1.10;;;;;;;14.23;74.15;101568.81;5075105;28;20114;-83
2021/08/17 03:03:30;;;;;;;5.47;1.40;;;;;;;14.17;74.04;101555.44;5066207;28;20466;-85
2021/08/17 03:05:57;;;;;;;6.63;1.58;;;;;;;14.16;73.95;101563.03;5074860;28;20044;-84
2021/08/17 03:08:23;;;;;;;4.50;1.73;;;;;;;14.17;73.99;101558.22;5071341;28;20044;-83
2021/08/17 03:10:50;;;;;;;4.22;1.38;;;;;;;14.14;74.10;101550.59;5058530;28;20044;-82
2021/08/17 03:13:17;;;;;;;1.73;0.95;;;;;;;14.13;74.20;101554.53;5076716;28;20049;-84
2021/08/17 03:15:44;;;;;;;5.28;1.30;;;;;;;14.14;73.99;101553.38;5075754;28;20045;-83
2021/08/17 03:18:11;;;;;;;7.43;1.20;;;;;;;14.16;73.96;101546.31;5093827;28;20082;-83
2021/08/17 03:20:38;;;;;;;8.90;1.55;;;;;;;14.14;73.96;101547.81;5076064;28;20051;-84
2021/08/17 03:23:07;;;;;;;5.90;1.27;;;;;;;14.13;73.97;101541.44;5075913;28;20538;-83
2021/08/17 03:25:34;;;;;;;6.05;1.30;;;;;;;14.16;74.14;101551.06;5073957;28;20052;-83
2021/08/17 03:28:00;;;;;;;5.15;1.40;;;;;;;14.14;74.14;101539.47;5073536;28;20557;-84
2021/08/17 03:30:28;;;;;;;3.50;1.48;;;;;;;14.14;73.83;101545.03;5073318;28;20045;-83
2021/08/17 03:32:55;;;;;;;3.95;1.13;;;;;;;14.11;73.90;101545.72;5073222;28;20079;-84
2021/08/17 03:35:22;;;;;;;5.18;1.60;;;;;;;14.12;74.04;101538.97;5075043;28;20039;-83
2021/08/17 03:37:49;;;;;;;2.20;0.90;;;;;;;14.12;73.94;101550.13;5074354;28;20062;-83
2021/08/17 03:40:19;;;;;;;8.77;1.15;;;;;;;14.16;73.73;101548.28;5074957;28;20115;-83
2021/08/17 03:42:46;;;;;;;7.40;1.17;;;;;;;14.13;73.94;101537.84;5075268;28;20064;-86
2021/08/17 03:45:16;;;;;;;5.25;1.63;;;;;;;14.10;74.27;101542.13;5074196;28;20040;-83
2021/08/17 03:47:43;;;;;;;8.52;1.00;;;;;;;14.09;74.23;101545.25;5069740;28;20038;-84
2021/08/17 03:50:12;;;;;;;3.30;1.08;;;;;;;14.06;74.30;101534.84;5065403;28;20036;-83
2021/08/17 03:52:40;;;;;;;7.75;2.90;;;;;;;14.04;74.32;101526.81;5075077;28;20403;-83
2021/08/17 03:55:08;;;;;;;6.07;1.17;;;;;;;14.01;74.20;101531.09;5074117;28;20403;-84
2021/08/17 03:57:35;;;;;;;5.07;0.98;;;;;;;14.02;74.27;101529.13;5074875;28;20063;-83
2021/08/17 04:00:04;;;;;;;3.83;1.17;;;;;;;13.95;74.45;101532.50;5074011;28;20040;-83
2021/08/17 04:02:30;;;;;;;2.50;0.98;;;;;;;13.93;74.61;101540.38;5071655;28;20108;-83
2021/08/17 04:04:57;;;;;;;5.03;1.55;;;;;;;13.94;74.66;101539.25;5060895;28;20041;-84
2021/08/17 04:07:24;;;;;;;2.53;1.00;;;;;;;13.93;74.50;101532.03;5073515;28;20049;-84
2021/08/17 04:09:51;;;;;;;5.13;1.10;;;;;;;13.93;74.66;101531.22;5074563;28;20041;-83
2021/08/17 04:12:18;;;;;;;9.90;1.23;;;;;;;13.93;74.35;101523.69;5074386;28;20044;-83
2021/08/17 04:14:44;;;;;;;2.53;0.90;;;;;;;13.90;74.70;101526.34;5040745;28;20052;-83
2021/08/17 04:17:11;;;;;;;6.57;1.92;;;;;;;13.88;74.99;101523.94;5067095;28;20050;-83
2021/08/17 04:19:39;;;;;;;3.85;1.15;;;;;;;13.90;74.94;101515.22;5075762;28;20154;-83
2021/08/17 04:22:07;;;;;;;2.80;1.08;;;;;;;13.90;74.97;101521.59;5057127;28;20128;-83
2021/08/17 04:24:34;;;;;;;6.20;1.10;;;;;;;13.86;75.49;101515.13;5081673;28;20040;-84
2021/08/17 04:27:01;;;;;;;7.45;1.35;;;;;;;13.81;75.56;101506.19;5092788;28;20483;-85
2021/08/17 04:29:28;;;;;;;6.63;1.48;;;;;;;13.79;75.76;101516.88;5083092;28;20119;-84
2021/08/17 04:31:55;;;;;;;3.75;1.33;;;;;;;13.75;76.13;101527.88;5078904;28;20484;-84
2021/08/17 04:34:22;;;;;;;4.50;1.00;;;;;;;13.76;76.05;101528.69;5053805;28;20048;-83
2021/08/17 04:36:49;;;;;;;3.78;1.40;;;;;;;13.73;76.38;101530.19;5075090;28;20068;-84
2021/08/17 04:39:16;;;;;;;3.58;1.27;;;;;;;13.72;76.55;101536.09;5058526;28;20049;-83
2021/08/17 04:41:43;;;;;;;5.85;0.80;;;;;;;13.68;76.48;101533.22;5059482;28;20051;-83
2021/08/17 04:44:10;;;;;;;5.22;0.98;;;;;;;13.70;76.85;101536.44;5036614;28;20083;-83
2021/08/17 04:46:36;;;;;;;3.70;0.80;;;;;;;13.72;76.74;101536.09;5071237;28;20067;-83
2021/08/17 04:49:03;;;;;;;3.47;1.23;;;;;;;13.73;76.56;101544.09;5070445;28;20040;-83
2021/08/17 04:51:30;;;;;;;5.65;1.30;;;;;;;13.73;76.65;101541.31;5079535;28;20042;-85
2021/08/17 04:53:57;;;;;;;3.17;0.90;;;;;;;13.69;76.85;101551.50;5060138;28;20066;-84
2021/08/17 04:56:24;;;;;;;2.17;0.90;;;;;;;13.69;77.29;101534.81;5064758;28;20383;-83
2021/08/17 04:58:51;;;;;;;6.13;1.25;;;;;;;13.73;77.00;101544.09;5081837;28;20037;-83
2021/08/17 05:01:18;;;;;;;5.50;1.17;;;;;;;13.74;76.99;101539.38;5073799;28;20032;-85
2021/08/17 05:03:45;;;;;;;4.68;1.10;;;;;;;13.76;76.77;101549.00;5094002;28;20058;-84
2021/08/17 05:06:15;;;;;;;2.63;1.00;;;;;;;13.75;77.00;101552.91;5078338;28;20127;-84
2021/08/17 05:08:42;;;;;;;3.65;0.75;;;;;;;13.73;76.87;101549.69;5062288;28;20075;-84
2021/08/17 05:11:09;;;;;;;3.25;1.02;;;;;;;13.75;77.14;101546.53;5056530;28;20053;-84
2021/08/17 05:13:37;;;;;;;4.53;1.20;;;;;;;13.74;76.84;101545.72;5065115;28;20136;-83
2021/08/17 05:16:04;;;;;;;2.55;1.23;;;;;;;13.77;76.84;101550.59;5072204;28;20037;-83
2021/08/17 05:18:32;;;;;;;6.38;1.20;;;;;;;13.79;76.72;101555.84;5074501;28;20560;-83
2021/08/17 05:21:00;;;;;;;5.80;1.25;;;;;;;13.78;76.90;101555.00;5073911;28;20033;-83
2021/08/17 05:23:27;;;;;;;3.13;1.15;;;;;;;13.81;76.99;101550.72;5073114;28;20123;-84
2021/08/17 05:25:54;;;;;;;5.15;1.90;;;;;;;13.81;76.89;101554.31;5083377;28;20545;-87
2021/08/17 05:28:22;;;;;;;5.43;1.17;;;;;;;13.82;76.74;101564.28;5087358;28;20071;-83
2021/08/17 05:30:49;;;;;;;3.80;1.00;;;;;;;13.83;76.70;101565.91;5066495;28;20475;-83
2021/08/17 05:33:16;;;;;;;2.17;1.02;;;;;;;13.83;77.00;101560.34;5054240;28;20041;-83
2021/08/17 05:35:43;;;;;;;3.65;0.90;;;;;;;13.83;76.82;101554.78;5075720;28;20036;-83
2021/08/17 05:38:11;;;;;;;3.70;0.85;;;;;;;13.82;77.04;101557.91;5060655;28;20067;-84
2021/08/17 05:40:38;;;;;;;7.00;1.02;;;;;;;13.85;76.99;101555.22;5047685;28;20056;-84
2021/08/17 05:43:09;;;;;;;3.22;1.23;;;;;;;13.90;76.69;101555.00;5037082;28;20039;-83
2021/08/17 05:45:56;;;;;;;3.95;0.90;;;;;;;13.93;76.78;101559.88;5071795;28;20045;-83
2021/08/17 05:48:23;;;;;;;4.10;1.08;;;;;;;13.90;76.87;101557.78;5067517;28;20120;-83
2021/08/17 05:50:50;;;;;;;5.00;1.42;;;;;;;13.94;76.83;101555.94;5050447;28;20122;-84
2021/08/17 05:53:17;;;;;;;3.72;1.67;;;;;;;13.91;76.84;101553.84;5063280;28;20043;-83
2021/08/17 05:55:43;;;;;;;3.45;0.90;;;;;;;13.93;76.82;101565.44;5063095;28;20044;-85
2021/08/17 05:58:10;;;;;;;6.78;1.50;;;;;;;13.92;77.02;101563.84;5055724;28;20119;-84
2021/08/17 06:00:37;;;;;;;3.63;1.10;;;;;;;13.88;76.93;101571.25;5079906;28;20046;-84
2021/08/17 06:03:04;;;;;;;4.43;0.80;;;;;;;13.92;77.21;101551.88;5054997;28;20439;-84
2021/08/17 06:05:31;;;;;;;4.13;0.95;;;;;;;13.96;76.60;101558.38;5048317;28;20051;-84
2021/08/17 06:07:58;;;;;;;3.35;1.05;;;;;;;13.97;76.85;101558.03;5045359;28;20432;-83
2021/08/17 06:10:25;;;;;;;2.35;1.02;;;;;;;13.99;76.85;101555.72;5072685;28;20055;-83
2021/08/17 06:12:51;;;;;;;5.05;1.55;;;;;;;13.99;76.86;101564.06;5074414;28;20123;-85
2021/08/17 06:15:18;;;;;;;5.75;1.35;;;;;;;13.99;76.77;101552.94;5071350;28;20443;-84
2021/08/17 06:17:47;;;;;;;3.20;1.25;;;;;;;13.98;77.00;101559.63;5071900;28;20045;-83
2021/08/17 06:20:15;;;;;;;5.70;1.20;;;;;;;14.00;77.15;101568.44;5061876;28;20044;-84
2021/08/17 06:22:42;;;;;;;8.73;1.98;;;;;;;13.99;77.23;101564.06;5055925;28;20843;-83
2021/08/17 06:25:09;;;;;;;4.60;1.65;;;;;;;14.00;76.77;101556.53;5071233;28;20047;-83
2021/08/17 06:27:38;;;;;;;4.85;1.50;;;;;;;13.98;76.73;101568.00;5053557;28;20048;-83
2021/08/17 06:30:06;;;;;;;5.50;0.85;;;;;;;13.99;77.12;101569.63;5044700;28;20068;-84
2021/08/17 06:32:50;;;;;;;5.45;1.65;;;;;;;13.99;77.05;101564.06;5059933;28;20049;-84
2021/08/17 06:35:17;;;;;;;7.93;1.55;;;;;;;14.04;76.84;101572.19;5055598;28;20137;-83
2021/08/17 06:37:44;;;;;;;3.20;2.17;;;;;;;14.09;76.70;101573.09;5062840;28;20052;-84
2021/08/17 06:40:11;;;;;;;4.53;2.35;;;;;;;14.13;76.71;101580.41;5071957;28;20155;-83
2021/08/17 06:42:38;;;;;;;2.42;1.25;;;;;;;14.12;76.85;101569.63;5071961;28;20120;-84
2021/08/17 06:45:05;;;;;;;5.75;1.70;;;;;;;14.10;76.90;101564.41;5063915;28;20040;-84
2021/08/17 06:47:32;;;;;;;4.05;1.65;;;;;;;14.07;77.04;101583.78;5061509;28;20040;-86
2021/08/17 06:49:59;;;;;;;5.38;1.33;;;;;;;14.09;76.95;101576.69;5071456;28;20044;-84
2021/08/17 06:52:26;;;;;;;5.47;1.85;;;;;;;14.17;77.03;101586.09;5071826;28;20037;-82
2021/08/17 06:54:52;;;;;;;6.72;1.00;;;;;;;14.21;76.91;101581.44;5071548;28;20055;-86
2021/08/17 06:57:19;;;;;;;6.18;2.50;;;;;;;14.23;76.82;101590.25;5072749;28;20052;-84
2021/08/17 06:59:46;;;;;;;6.72;1.45;;;;;;;14.30;76.98;101590.47;5071112;28;20033;-83
2021/08/17 07:02:13;;;;;;;7.88;1.73;;;;;;;14.28;76.85;101595.59;5070230;28;20096;-80
2021/08/17 07:04:40;;;;;;;6.50;1.40;;;;;;;14.28;77.12;101592.81;5070762;28;20045;-85
2021/08/17 07:07:07;;;;;;;4.10;1.40;;;;;;;14.31;77.01;101600.47;5071254;28;20090;-84
2021/08/17 07:09:33;;;;;;;6.10;1.40;;;;;;;14.33;76.83;101606.53;5061063;28;20040;-84
2021/08/17 07:12:00;;;;;;;9.88;2.22;;;;;;;14.34;76.97;101591.44;5068955;28;20120;-84
2021/08/17 07:14:27;;;;;;;6.22;1.25;;;;;;;14.31;77.07;101592.97;5049567;28;20091;-83
2021/08/17 07:16:54;;;;;;;3.20;1.15;;;;;;;14.32;77.06;101579.84;5050945;28;20040;-85
2021/08/17 07:19:21;;;;;;;7.65;1.80;;;;;;;14.33;77.05;101590.63;5034924;28;20040;-83
2021/08/17 07:21:48;;;;;;;4.75;1.35;;;;;;;14.33;77.16;101578.69;5070099;28;20512;-83
2021/08/17 07:24:15;;;;;;;4.20;1.60;;;;;;;14.33;77.23;101592.59;5070546;28;20043;-82
2021/08/17 07:26:42;;;;;;;7.35;1.77;;;;;;;14.34;77.24;101581.13;5067762;28;20049;-82
2021/08/17 07:29:08;;;;;;;4.25;1.38;;;;;;;14.35;77.18;101587.53;5070828;28;20043;-83
2021/08/17 07:31:36;;;;;;;4.65;1.33;;;;;;;14.36;77.27;101589.94;5071021;28;20040;-87
2021/08/17 07:34:05;;;;;;;7.05;2.17;;;;;;;14.40;77.13;101595.63;5070497;28;20537;-83
2021/08/17 07:36:34;;;;;;;4.43;1.38;;;;;;;14.37;77.42;101586.00;5056094;28;20174;-79
2021/08/17 07:39:04;;;;;;;4.78;1.63;;;;;;;14.34;77.39;101583.91;5074082;28;20043;-85
2021/08/17 07:41:30;;;;;;;5.97;1.50;;;;;;;14.35;77.55;101579.16;5054456;28;20123;-86
2021/08/17 07:43:58;;;;;;;7.82;1.55;;;;;;;14.35;77.57;101581.94;5057198;28;20040;-85
2021/08/17 07:46:25;;;;;;;7.63;2.80;;;;;;;14.36;77.65;101583.56;5056381;28;20554;-85
2021/08/17 07:48:52;;;;;;;6.30;1.85;;;;;;;14.37;77.63;101574.03;5071117;28;20051;-85
2021/08/17 07:51:19;;;;;;;5.07;1.40;;;;;;;14.40;77.59;101582.50;5058530;28;20040;-85
2021/08/17 07:53:46;;;;;;;4.05;2.13;;;;;;;14.42;77.61;101590.50;5076479;28;20075;-85
2021/08/17 07:56:13;;;;;;;8.85;2.97;;;;;;;14.46;77.52;101588.63;5047103;28;20412;-85
2021/08/17 07:58:41;;;;;;;7.90;3.08;;;;;;;14.49;77.54;101582.38;5062840;28;20052;-85
2021/08/17 08:01:11;;;;;;;5.85;2.30;;;;;;;14.51;77.33;101580.03;5066274;28;20056;-85
2021/08/17 08:03:40;;;;;;;8.55;2.05;;;;;;;14.50;77.55;101576.47;5069323;28;20049;-87
2021/08/17 08:06:07;;;;;;;6.55;2.33;;;;;;;14.48;77.85;101589.91;5069993;28;20071;-84
2021/08/17 08:08:34;;;;;;;6.28;2.17;;;;;;;14.49;77.69;101594.31;5034092;28;20040;-85
2021/08/17 08:11:02;;;;;;;8.18;1.95;;;;;;;14.52;77.69;101592.81;5063148;28;20716;-86
2021/08/17 08:13:30;;;;;;;6.35;2.15;;;;;;;14.53;77.75;101583.31;5050244;28;20048;-86
2021/08/17 08:15:56;;;;;;;6.75;1.85;;;;;;;14.58;77.41;101585.84;5067378;28;20044;-85
2021/08/17 08:18:23;;;;;;;8.07;2.35;;;;;;;14.58;77.55;101580.28;5045325;28;20116;-87
2021/08/17 08:20:50;;;;;;;6.18;2.05;;;;;;;14.60;77.45;101577.94;5053599;28;20032;-81
2021/08/17 08:23:22;;;;;;;6.28;2.15;;;;;;;14.66;77.68;101595.22;5040200;28;20040;-84
2021/08/17 08:25:49;;;;;;;4.30;2.08;;;;;;;14.74;77.34;101581.16;5047911;28;20047;-81
2021/08/17 08:28:16;;;;;;;8.57;2.22;;;;;;;14.82;77.39;101596.94;5049832;28;20064;-88
2021/08/17 08:30:43;;;;;;;7.20;2.30;;;;;;;14.81;77.56;101595.31;5033571;28;20083;-88
2021/08/17 08:33:11;;;;;;;6.15;2.20;;;;;;;14.81;77.57;101600.88;5067634;28;20649;-86
2021/08/17 08:35:38;;;;;;;5.65;2.42;;;;;;;14.88;77.25;101589.91;5035475;28;20535;-86
2021/08/17 08:38:06;;;;;;;4.63;1.88;;;;;;;14.95;77.50;101594.91;5064251;28;20055;-87
2021/08/17 08:40:33;;;;;;;5.35;2.38;;;;;;;15.00;77.56;101587.09;5060384;28;20079;-86
2021/08/17 08:43:00;;;;;;;7.00;1.80;;;;;;;15.04;77.73;101592.75;5053452;28;20098;-84
2021/08/17 08:45:29;;;;;;;6.43;1.65;;;;;;;15.10;77.69;101581.00;5056009;28;21995;-79
2021/08/17 08:47:59;;;;;;;4.70;1.75;;;;;;;15.16;77.69;101590.75;5055934;28;20044;-86
2021/08/17 08:50:29;;;;;;;6.32;2.00;;;;;;;15.27;77.70;101591.84;5073319;28;20044;-86
2021/08/17 08:52:58;;;;;;;3.85;1.55;;;;;;;15.36;77.32;101582.50;5072741;28;20131;-88
2021/08/17 08:55:25;;;;;;;6.45;1.40;;;;;;;15.41;77.28;101579.47;5070501;28;20079;-87
2021/08/17 08:57:52;;;;;;;6.10;1.52;;;;;;;15.41;77.09;101577.47;5073402;28;20044;-88
2021/08/17 09:00:19;;;;;;;6.03;1.25;;;;;;;15.48;76.99;101574.94;5072398;28;20147;-87
2021/08/17 09:02:50;;;;;;;6.70;1.83;;;;;;;15.54;76.83;101587.41;5071885;28;20127;-87
2021/08/17 09:05:20;;;;;;;7.75;1.50;;;;;;;15.62;76.74;101577.28;5071614;28;20123;-88
2021/08/17 09:07:52;;;;;;;4.03;1.42;;;;;;;15.66;76.58;101564.22;5072660;28;20048;-87
2021/08/17 09:10:24;;;;;;;6.80;1.60;;;;;;;15.73;76.63;101569.97;5072167;28;20072;-88
2021/08/17 09:12:54;;;;;;;4.28;1.52;;;;;;;15.80;76.58;101570.16;5071763;28;20058;-88
2021/08/17 09:15:33;;;;;;;3.65;1.55;;;;;;;15.87;76.31;101558.34;5071650;28;20044;-84
2021/08/17 09:18:11;;;;;;;6.38;1.27;;;;;;;15.93;76.17;101562.50;5051193;28;20534;-87
2021/08/17 09:20:49;;;;;;;5.72;1.55;;;;;;;16.01;75.96;101567.09;5072372;28;20143;-86
2021/08/17 09:23:25;;;;;;;2.85;1.67;;;;;;;16.05;76.04;101556.78;5073138;28;20127;-86
2021/08/17 09:25:54;;;;;;;6.35;1.60;;;;;;;16.20;76.04;101556.78;5073064;28;20119;-85
2021/08/17 09:28:31;;;;;;;5.15;1.13;;;;;;;16.27;75.74;101556.97;5072987;28;20045;-89
2021/08/17 09:31:00;;;;;;;7.43;1.30;;;;;;;16.42;75.64;101570.06;5070518;28;20048;-87
2021/08/17 09:33:37;;;;;;;3.03;1.60;;;;;;;16.58;75.17;101567.25;5053930;28;20091;-87
2021/08/17 09:36:08;;;;;;;2.78;1.17;;;;;;;16.74;75.12;101562.41;5033486;28;20045;-86
2021/08/17 09:38:35;;;;;;;5.50;1.48;;;;;;;16.84;74.96;101563.81;5058060;28;20048;-87
2021/08/17 09:41:20;;;;;;;18.83;3.78;;;;;;;16.88;74.10;101562.72;5050968;28;20119;-87
2021/08/17 09:44:18;;;;;;;4.45;1.67;;;;;;;16.96;74.07;101566.47;5071552;28;20090;-85
2021/08/17 09:46:45;;;;;;;3.08;1.52;;;;;;;17.00;74.54;101565.34;5042862;28;20079;-87
2021/08/17 09:49:26;;;;;;;4.30;1.52;;;;;;;17.09;73.86;101578.31;5060690;28;20501;-86
2021/08/17 09:51:54;;;;;;;4.25;2.05;;;;;;;17.21;74.22;101564.97;5041514;28;20037;-85
2021/08/17 09:54:25;;;;;;;5.25;2.28;;;;;;;17.27;73.71;101569.09;5054642;28;20447;-86
2021/08/17 09:57:04;;;;;;;6.22;2.10;;;;;;;17.29;73.48;101563.94;5068426;28;20036;-87
2021/08/17 09:59:34;;;;;;;6.45;2.05;;;;;;;17.29;73.77;101574.34;5059759;28;20055;-85
2021/08/17 10:02:06;;;;;;;7.25;1.77;;;;;;;17.30;73.71;101578.72;5070571;28;20040;-86
2021/08/17 10:04:35;;;;;;;7.20;1.40;;;;;;;17.34;73.41;101560.03;5056557;28;20041;-87
2021/08/17 10:07:03;;;;;;;4.05;1.60;;;;;;;17.39;73.32;101559.72;5039682;28;20102;-85
2021/08/17 10:09:32;;;;;;;3.88;1.50;;;;;;;17.46;73.16;101563.47;5066923;28;20067;-87
2021/08/17 10:12:00;;;;;;;2.42;1.70;;;;;;;17.51;72.92;101565.13;5062897;28;20044;-86
2021/08/17 10:14:28;;;;;;;3.67;1.70;;;;;;;17.70;72.97;101567.09;5069911;28;20114;-85
2021/08/17 10:16:56;;;;;;;4.38;1.30;;;;;;;17.95;72.71;101559.94;5067112;28;20076;-87
2021/08/17 10:19:28;;;;;;;6.28;1.65;;;;;;;18.07;72.35;101566.16;5054158;28;20048;-87
2021/08/17 10:21:56;;;;;;;1.88;1.30;;;;;;;18.23;71.82;101554.78;5054136;28;20055;-87
2021/08/17 10:24:23;;;;;;;1.77;1.20;;;;;;;18.32;71.72;101560.91;5071119;28;20040;-86
2021/08/17 10:27:13;;;;;;;3.85;1.10;;;;;;;18.44;70.67;101565.50;5052599;28;20045;-87
2021/08/17 10:30:01;;;;;;;3.85;1.35;;;;;;;18.60;70.24;101558.56;5068803;28;20041;-88
2021/08/17 10:32:38;;;;;;;3.60;1.20;;;;;;;18.55;70.75;101558.88;5055736;28;20087;-89
2021/08/17 10:35:07;;;;;;;3.20;0.95;;;;;;;18.59;70.76;101558.91;5066507;28;20074;-83
2021/08/17 10:37:35;;;;;;;3.08;1.30;;;;;;;18.63;70.76;101559.78;5034315;28;20048;-85
2021/08/17 10:40:03;;;;;;;5.07;0.98;;;;;;;18.78;70.80;101561.59;5065175;28;20044;-85
2021/08/17 10:42:29;;;;;;;3.85;1.10;;;;;;;18.91;70.51;101553.72;5052288;28;20128;-87
2021/08/17 10:45:25;;;;;;;1.25;0.82;;;;;;;19.06;68.79;101555.53;5070839;28;20051;-87
2021/08/17 10:47:52;;;;;;;3.10;0.70;;;;;;;19.35;69.67;101551.84;5071433;28;20071;-86
2021/08/17 10:50:32;;;;;;;0.93;0.60;;;;;;;19.53;68.36;101558.47;5071514;28;20036;-86
2021/08/17 10:53:35;;;;;;;0.65;0.50;;;;;;;19.57;68.39;101562.13;5071247;28;20048;-87
2021/08/17 10:56:12;;;;;;;2.38;0.57;;;;;;;19.56;67.09;101552.09;5057747;28;20068;-86
2021/08/17 10:58:41;;;;;;;3.00;0.70;;;;;;;19.52;68.42;101554.03;5071891;28;20039;-87
2021/08/17 11:01:08;;;;;;;2.63;0.82;;;;;;;19.48;68.15;101560.81;5056846;28;20044;-85
2021/08/17 11:03:49;;;;;;;2.65;0.70;;;;;;;19.48;67.39;101552.41;5071289;28;20079;-86
2021/08/17 11:06:37;;;;;;;2.90;1.35;;;;;;;19.52;66.67;101551.22;5053293;28;20553;-89
2021/08/17 11:09:25;;;;;;;1.33;0.57;;;;;;;19.57;67.44;101547.25;5070808;28;20490;-86
2021/08/17 11:11:58;;;;;;;1.38;0.50;;;;;;;19.49;67.35;101546.38;5072645;28;20132;-87
2021/08/17 11:14:27;;;;;;;3.03;0.85;;;;;;;19.52;67.58;101540.00;5072985;28;20052;-88
2021/08/17 11:17:06;;;;;;;0.80;0.45;;;;;;;19.79;66.93;101540.63;5060834;28;20086;-86
2021/08/17 11:19:38;;;;;;;0.85;0.30;;;;;;;19.82;67.13;101537.88;5074218;28;20557;-86
2021/08/17 11:22:10;;;;;;;0.60;0.30;;;;;;;19.95;66.72;101538.38;5069467;28;20033;-86
2021/08/17 11:24:40;;;;;;;0.40;0.40;;;;;;;19.85;66.42;101553.16;5074773;28;20462;-87
2021/08/17 11:27:21;;;;;;;3.25;0.70;;;;;;;19.75;66.59;101551.84;5074669;28;20044;-82
2021/08/17 11:29:56;;;;;;;2.83;0.75;;;;;;;19.98;66.70;101551.66;5074303;28;20033;-87
2021/08/17 11:32:57;;;;;;;0.80;0.30;;;;;;;20.12;65.38;101556.56;5074335;28;20403;-88